Time;durP1;ratioP1;P1;durP2;ratioP2;P2;SDS_P1;SDS_P2;PMS_P1;PMS_P2;Temp;Humidity;BMP_temperature;BMP_pressure;BME280_temperature;BME280_humidity;BME280_pressure;Samples;Min_cycle;Max_cycle;Signal;HPM_P1;HPM_P2
2022/03/20 00:02:53;;;;;;;19.60;17.60;;;9.30;21.90;;;;;;10307911;28;20258;-73
2022/03/20 00:07:58;;;;;;;20.67;18.47;;;9.30;22.00;;;;;;10340799;28;20656;-73
2022/03/20 00:13:02;;;;;;;20.63;18.40;;;9.30;22.00;;;;;;10319551;28;20282;-74
2022/03/20 00:18:06;;;;;;;21.93;18.40;;;9.30;22.00;;;;;;10325937;28;20227;-73
2022/03/20 00:23:12;;;;;;;21.20;18.90;;;9.30;22.10;;;;;;10318525;28;20234;-73
2022/03/20 00:28:17;;;;;;;20.83;18.67;;;9.30;22.10;;;;;;10328525;28;20230;-73
2022/03/20 00:33:21;;;;;;;21.13;18.90;;;9.30;22.10;;;;;;10335432;28;20238;-73
2022/03/20 00:38:25;;;;;;;21.83;18.43;;;9.30;22.20;;;;;;10329228;28;20303;-73
2022/03/20 00:43:28;;;;;;;19.67;17.57;;;9.30;22.20;;;;;;10363389;28;20237;-73
2022/03/20 00:48:32;;;;;;;22.53;20.17;;;9.30;22.20;;;;;;10316081;28;20227;-73
2022/03/20 00:53:36;;;;;;;20.10;17.97;;;9.30;22.20;;;;;;10345012;28;20238;-73
2022/03/20 00:58:39;;;;;;;20.80;18.67;;;9.30;22.20;;;;;;10346181;28;20234;-73
2022/03/20 01:03:44;;;;;;;22.23;19.37;;;9.30;22.20;;;;;;10325784;28;20232;-73
2022/03/20 01:08:49;;;;;;;20.90;18.73;;;9.30;22.30;;;;;;10328798;28;20231;-73
2022/03/20 01:13:54;;;;;;;21.40;19.00;;;9.30;22.40;;;;;;10319152;28;20323;-73
2022/03/20 01:18:58;;;;;;;24.37;19.83;;;9.20;22.40;;;;;;10327021;28;20234;-73
2022/03/20 01:24:02;;;;;;;20.83;18.63;;;9.20;22.40;;;;;;10332525;28;20227;-73
2022/03/20 01:29:06;;;;;;;21.53;19.43;;;9.20;22.40;;;;;;10341600;28;20237;-73
2022/03/20 01:34:10;;;;;;;20.53;17.97;;;9.10;22.40;;;;;;10324339;28;20245;-73
2022/03/20 01:39:15;;;;;;;20.37;18.20;;;9.10;22.50;;;;;;10340268;28;20242;-73
2022/03/20 01:44:18;;;;;;;20.77;18.60;;;9.10;22.60;;;;;;10332559;28;20234;-73
2022/03/20 01:49:22;;;;;;;21.10;18.80;;;9.10;22.60;;;;;;10316330;28;20270;-73
2022/03/20 01:54:25;;;;;;;21.03;18.83;;;9.00;22.60;;;;;;10322016;28;20234;-73
2022/03/20 01:59:29;;;;;;;20.67;18.57;;;9.00;22.60;;;;;;10323996;28;20241;-73
2022/03/20 02:04:36;;;;;;;21.70;18.93;;;9.00;22.70;;;;;;10324022;28;20250;-73
2022/03/20 02:09:42;;;;;;;22.00;19.70;;;8.90;22.80;;;;;;10328032;28;20234;-73
2022/03/20 02:14:45;;;;;;;20.93;18.73;;;8.90;22.90;;;;;;10331420;28;20317;-73
2022/03/20 02:19:50;;;;;;;21.73;19.43;;;8.90;22.80;;;;;;10330696;28;20261;-73
2022/03/20 02:24:54;;;;;;;22.13;19.83;;;8.90;22.80;;;;;;10330600;28;20235;-73
2022/03/20 02:29:59;;;;;;;22.00;19.13;;;8.90;22.90;;;;;;10330762;28;20255;-73
2022/03/20 02:35:05;;;;;;;21.23;18.93;;;8.80;22.80;;;;;;10328552;28;20608;-73
2022/03/20 02:40:11;;;;;;;21.83;19.57;;;8.80;22.90;;;;;;10322270;28;20242;-73
2022/03/20 02:45:16;;;;;;;20.13;18.03;;;8.80;23.00;;;;;;10329756;28;20846;-73
2022/03/20 02:50:22;;;;;;;21.93;19.53;;;8.80;23.00;;;;;;10333150;28;20230;-73
2022/03/20 02:55:28;;;;;;;22.20;19.77;;;8.70;23.00;;;;;;10334288;28;20243;-73
2022/03/20 03:00:33;;;;;;;20.77;18.53;;;8.70;23.10;;;;;;10316293;28;20314;-73
2022/03/20 03:05:37;;;;;;;22.40;19.10;;;8.60;23.00;;;;;;10329003;28;20231;-73
2022/03/20 03:10:59;;;;;;;20.40;18.30;;;8.60;23.10;;;;;;10337640;28;20231;-73
2022/03/20 03:16:05;;;;;;;19.97;17.80;;;8.60;23.20;;;;;;10331030;28;20254;-73
2022/03/20 03:21:11;;;;;;;21.53;18.27;;;8.50;23.20;;;;;;10343530;28;20245;-73
2022/03/20 03:26:16;;;;;;;22.50;19.53;;;8.50;23.30;;;;;;10338982;28;20797;-73
2022/03/20 03:31:19;;;;;;;20.37;17.67;;;8.50;23.10;;;;;;10336277;28;20231;-73
2022/03/20 03:36:22;;;;;;;20.27;18.17;;;8.50;23.10;;;;;;10327798;28;20315;-73
2022/03/20 03:41:27;;;;;;;20.37;18.20;;;8.50;23.20;;;;;;10328395;28;20261;-73
2022/03/20 03:46:30;;;;;;;22.63;20.33;;;8.50;23.30;;;;;;10320025;28;20231;-73
2022/03/20 03:51:34;;;;;;;21.03;18.93;;;8.40;23.20;;;;;;10327254;28;20261;-73
2022/03/20 03:56:39;;;;;;;20.43;17.97;;;8.30;23.10;;;;;;10331493;28;20240;-73
2022/03/20 04:01:42;;;;;;;21.80;19.10;;;8.30;23.90;;;;;;10330221;28;20227;-73
2022/03/20 04:06:46;;;;;;;19.70;17.67;;;8.20;23.10;;;;;;10326884;28;20239;-73
2022/03/20 04:11:52;;;;;;;21.40;19.10;;;8.20;23.20;;;;;;10324736;28;20223;-73
2022/03/20 04:16:55;;;;;;;21.17;18.80;;;8.10;23.40;;;;;;10326521;28;20239;-73
2022/03/20 04:22:00;;;;;;;21.73;18.90;;;8.10;23.40;;;;;;10326487;28;20239;-73
2022/03/20 04:27:05;;;;;;;22.00;19.50;;;8.00;23.40;;;;;;10326194;28;20235;-73
2022/03/20 04:32:09;;;;;;;21.60;19.30;;;8.00;23.50;;;;;;10302482;28;20236;-73
2022/03/20 04:37:13;;;;;;;21.57;19.40;;;7.90;23.40;;;;;;10315949;28;20239;-73
2022/03/20 04:42:17;;;;;;;21.50;19.20;;;7.80;23.50;;;;;;10325689;28;20241;-73
2022/03/20 05:03:24;;;;;;;18.47;16.57;;;7.60;23.60;;;;;;10321089;28;20231;-73
2022/03/20 05:08:27;;;;;;;20.20;18.13;;;7.50;23.60;;;;;;10324174;28;20269;-73
2022/03/20 05:13:33;;;;;;;20.37;18.20;;;7.40;23.60;;;;;;10323802;28;20231;-72
2022/03/20 05:18:36;;;;;;;20.67;18.47;;;7.30;23.60;;;;;;10316379;28;20700;-72
2022/03/20 05:23:40;;;;;;;21.10;18.77;;;7.20;23.70;;;;;;10321950;28;20751;-72
2022/03/20 05:28:44;;;;;;;20.93;17.83;;;7.10;23.80;;;;;;10316921;28;20231;-72
2022/03/20 05:33:47;;;;;;;20.30;17.30;;;7.00;24.00;;;;;;10323994;28;20711;-72
2022/03/20 05:38:50;;;;;;;20.97;18.70;;;7.00;24.00;;;;;;10328801;28;20231;-72
2022/03/20 05:43:55;;;;;;;21.07;18.87;;;7.00;24.10;;;;;;10314546;28;20235;-72
2022/03/20 05:48:58;;;;;;;19.73;17.70;;;6.90;24.20;;;;;;10341808;28;20239;-72
2022/03/20 05:54:01;;;;;;;18.80;16.47;;;6.80;24.20;;;;;;10337781;28;20239;-73
2022/03/20 05:59:06;;;;;;;19.77;17.77;;;6.80;24.20;;;;;;10331085;28;20223;-72
2022/03/20 06:04:10;;;;;;;19.93;17.83;;;6.80;24.50;;;;;;10328373;28;20259;-73
2022/03/20 06:09:13;;;;;;;19.67;16.60;;;6.80;24.50;;;;;;10337357;28;20317;-72
2022/03/20 06:14:18;;;;;;;18.93;16.93;;;6.80;24.50;;;;;;10324591;28;20264;-72
2022/03/20 06:19:21;;;;;;;19.33;17.07;;;6.80;24.80;;;;;;10336550;28;20620;-72
2022/03/20 06:24:24;;;;;;;20.00;17.00;;;6.90;24.70;;;;;;10329785;28;20710;-73
2022/03/20 06:29:28;;;;;;;19.03;16.33;;;6.90;24.80;;;;;;10330784;28;20717;-72
2022/03/20 06:34:34;;;;;;;18.87;16.87;;;7.00;25.60;;;;;;10335973;28;20586;-72
2022/03/20 06:39:37;;;;;;;18.97;16.97;;;7.10;25.00;;;;;;10323650;28;20237;-72
2022/03/20 06:44:42;;;;;;;17.57;15.73;;;7.20;25.00;;;;;;10329318;28;20235;-72
2022/03/20 06:49:45;;;;;;;18.67;16.67;;;7.20;25.20;;;;;;10339619;28;20239;-72
2022/03/20 06:54:48;;;;;;;18.53;16.10;;;7.30;25.00;;;;;;10325628;28;20234;-72
2022/03/20 06:59:53;;;;;;;17.17;15.37;;;7.40;25.00;;;;;;10329456;28;20227;-73
2022/03/20 07:04:57;;;;;;;16.93;15.13;;;7.50;25.10;;;;;;10335001;28;20254;-73
2022/03/20 07:10:00;;;;;;;17.10;15.30;;;7.70;25.00;;;;;;10330732;28;20723;-74
2022/03/20 07:15:05;;;;;;;17.73;15.83;;;7.80;25.10;;;;;;10335892;28;20243;-72
2022/03/20 07:20:10;;;;;;;16.40;14.70;;;8.00;25.10;;;;;;10337534;28;20592;-74
2022/03/20 07:30:36;;;;;;;15.13;13.63;;;8.30;25.10;;;;;;10333057;28;20233;-74
2022/03/20 07:35:40;;;;;;;16.40;14.70;;;8.50;25.00;;;;;;10330994;28;20556;-74
2022/03/20 07:40:43;;;;;;;16.77;15.07;;;8.70;25.00;;;;;;10329431;28;20716;-74
2022/03/20 07:45:48;;;;;;;16.07;14.47;;;8.80;24.80;;;;;;10337117;28;20606;-74
2022/03/20 07:50:51;;;;;;;15.97;14.37;;;9.00;24.80;;;;;;10335366;28;20228;-74
2022/03/20 07:55:55;;;;;;;16.17;14.43;;;9.30;24.90;;;;;;10326267;28;20252;-75
2022/03/20 08:00:59;;;;;;;16.27;14.53;;;9.50;24.80;;;;;;10327200;28;20235;-73
2022/03/20 08:06:03;;;;;;;16.23;14.63;;;9.70;24.60;;;;;;10328990;28;20234;-75
2022/03/20 08:11:07;;;;;;;16.43;14.63;;;10.00;23.90;;;;;;10331590;28;20620;-74
2022/03/20 08:16:15;;;;;;;16.00;14.37;;;10.30;23.70;;;;;;10321326;28;20245;-74
2022/03/20 08:21:19;;;;;;;14.70;13.30;;;10.50;23.60;;;;;;10325223;28;20258;-74
2022/03/20 08:26:22;;;;;;;15.07;13.63;;;10.80;23.70;;;;;;10335458;28;20600;-74
2022/03/20 08:31:27;;;;;;;15.57;14.07;;;11.10;23.50;;;;;;10332316;28;20460;-74
2022/03/20 08:36:30;;;;;;;14.40;13.00;;;11.30;23.10;;;;;;10327891;28;20256;-74
2022/03/20 08:41:34;;;;;;;16.33;14.67;;;11.50;22.90;;;;;;10334628;28;20286;-74
2022/03/20 08:46:38;;;;;;;15.07;13.57;;;11.70;22.60;;;;;;10326148;28;20235;-71
2022/03/20 08:51:43;;;;;;;15.00;13.50;;;11.90;22.70;;;;;;10317225;28;20266;-71
2022/03/20 08:56:46;;;;;;;14.57;13.17;;;12.10;22.40;;;;;;10325089;28;20238;-71
2022/03/20 09:01:51;;;;;;;14.23;12.83;;;12.30;22.50;;;;;;10319365;28;20272;-72
2022/03/20 09:06:54;;;;;;;15.27;13.70;;;12.50;22.20;;;;;;10320566;28;20242;-72
2022/03/20 09:11:57;;;;;;;13.83;12.43;;;12.70;21.80;;;;;;10323793;28;20230;-72
2022/03/20 09:22:23;;;;;;;14.63;13.13;;;13.00;21.80;;;;;;10316978;28;20262;-72
2022/03/20 09:27:26;;;;;;;14.03;12.63;;;13.20;21.30;;;;;;10321724;28;20231;-72
2022/03/20 09:32:31;;;;;;;13.83;12.13;;;13.30;21.20;;;;;;10326095;28;20621;-72
2022/03/20 09:37:34;;;;;;;13.53;12.20;;;13.40;21.00;;;;;;10332354;28;20322;-72
2022/03/20 09:42:37;;;;;;;13.13;11.53;;;13.50;21.30;;;;;;10343571;28;20712;-72
2022/03/20 09:47:43;;;;;;;14.20;12.53;;;13.60;21.00;;;;;;10330666;28;20241;-72
2022/03/20 09:52:46;;;;;;;13.50;12.03;;;13.80;21.10;;;;;;10332153;28;20238;-72
2022/03/20 09:57:49;;;;;;;13.17;11.87;;;14.00;21.20;;;;;;10331875;28;20235;-72
2022/03/20 10:02:54;;;;;;;12.97;11.67;;;14.20;21.40;;;;;;10331877;28;20362;-72
2022/03/20 10:08:10;;;;;;;12.80;11.57;;;14.40;20.20;;;;;;10331345;28;20238;-72
2022/03/20 10:13:14;;;;;;;13.77;12.43;;;14.40;19.80;;;;;;10311997;28;20338;-74
2022/03/20 10:18:22;;;;;;;13.33;12.03;;;14.60;20.40;;;;;;10319132;28;20226;-74
2022/03/20 10:23:30;;;;;;;13.23;11.93;;;14.70;20.30;;;;;;10318022;28;20239;-74
2022/03/20 10:28:36;;;;;;;13.43;12.13;;;14.90;19.80;;;;;;10312303;28;20719;-73
2022/03/20 10:33:41;;;;;;;12.93;11.73;;;15.00;20.20;;;;;;10314965;28;20235;-74
2022/03/20 10:38:46;;;;;;;12.87;11.67;;;15.20;20.20;;;;;;10314416;28;20720;-74
2022/03/20 10:43:51;;;;;;;12.50;11.30;;;15.30;19.90;;;;;;10315618;28;20235;-73
2022/03/20 10:48:57;;;;;;;12.60;11.30;;;15.30;19.80;;;;;;10311685;28;20231;-74
2022/03/20 10:54:01;;;;;;;12.17;11.00;;;15.40;19.50;;;;;;10310830;28;20612;-74
2022/03/20 10:59:15;;;;;;;12.50;11.40;;;15.50;20.00;;;;;;10305806;28;20330;-74
2022/03/20 11:04:20;;;;;;;12.33;11.23;;;15.60;19.10;;;;;;10308003;28;20242;-73
2022/03/20 11:09:28;;;;;;;12.80;11.60;;;15.80;19.90;;;;;;10310794;28;20232;-74
2022/03/20 11:14:35;;;;;;;12.23;10.93;;;16.00;19.90;;;;;;10312162;28;20241;-73
2022/03/20 11:19:43;;;;;;;11.90;10.73;;;16.20;19.20;;;;;;10316943;28;20223;-73
2022/03/20 11:24:48;;;;;;;11.47;10.37;;;16.30;19.00;;;;;;10309283;28;21099;-73
2022/03/20 11:29:53;;;;;;;11.90;10.80;;;16.40;19.20;;;;;;10307564;28;20227;-74
2022/03/20 11:34:58;;;;;;;12.50;11.30;;;16.50;19.30;;;;;;10310820;28;20235;-74
2022/03/20 11:40:19;;;;;;;14.90;11.07;;;16.60;18.80;;;;;;10310075;28;20245;-74
2022/03/20 11:45:24;;;;;;;12.87;11.57;;;16.60;18.00;;;;;;10302121;28;20258;-74
2022/03/20 11:50:40;;;;;;;12.20;11.10;;;16.70;18.90;;;;;;10315119;28;20233;-74
2022/03/20 11:55:51;;;;;;;12.37;11.07;;;16.80;18.60;;;;;;10305059;28;20235;-74
2022/03/20 12:01:02;;;;;;;12.50;11.20;;;16.80;17.90;;;;;;10305996;28;20552;-74
2022/03/20 12:06:49;;;;;;;13.27;11.97;;;16.90;18.00;;;;;;10312367;28;20644;-74
2022/03/20 12:12:09;;;;;;;12.97;11.80;;;16.80;17.30;;;;;;10301420;28;20238;-73
2022/03/20 12:17:12;;;;;;;12.63;11.43;;;16.80;17.70;;;;;;10307877;28;20237;-73
2022/03/20 12:22:29;;;;;;;12.37;11.17;;;16.90;18.70;;;;;;10312691;28;20281;-74
2022/03/20 12:27:43;;;;;;;12.20;11.10;;;16.90;17.40;;;;;;10310345;28;20242;-74
2022/03/20 12:32:55;;;;;;;12.17;10.97;;;16.90;17.30;;;;;;10296681;28;20226;-74
2022/03/20 12:37:59;;;;;;;11.33;10.37;;;16.90;17.50;;;;;;10302017;28;20231;-73
2022/03/20 12:43:07;;;;;;;11.33;10.30;;;16.90;18.10;;;;;;10311287;28;20247;-73
2022/03/20 12:48:13;;;;;;;12.10;11.00;;;17.00;18.10;;;;;;10314613;28;20626;-73
2022/03/20 12:53:21;;;;;;;11.83;10.73;;;17.00;18.00;;;;;;10313337;28;20231;-74
2022/03/20 12:58:25;;;;;;;11.83;10.63;;;17.00;17.60;;;;;;10304890;28;20239;-73
2022/03/20 13:03:32;;;;;;;11.20;10.20;;;17.00;17.80;;;;;;10309979;28;20234;-73
2022/03/20 13:08:38;;;;;;;12.43;11.23;;;17.10;17.20;;;;;;10307952;28;20241;-73
2022/03/20 13:13:41;;;;;;;12.90;10.77;;;17.00;16.90;;;;;;10315947;28;20262;-73
2022/03/20 13:18:46;;;;;;;11.43;10.43;;;17.00;17.30;;;;;;10312590;28;20231;-73
2022/03/20 13:23:52;;;;;;;11.87;10.67;;;17.00;17.00;;;;;;10314377;28;20249;-73
2022/03/20 13:28:57;;;;;;;11.47;10.37;;;17.00;17.20;;;;;;10309535;28;20231;-74
2022/03/20 13:34:01;;;;;;;11.50;10.50;;;17.10;17.60;;;;;;10312644;28;20236;-74
2022/03/20 13:39:11;;;;;;;11.63;10.43;;;17.10;16.90;;;;;;10312063;28;20230;-73
2022/03/20 13:44:15;;;;;;;11.20;10.10;;;17.10;16.30;;;;;;10310577;28;20234;-74
2022/03/20 13:49:18;;;;;;;11.00;10.00;;;17.10;17.10;;;;;;10301790;28;20234;-73
2022/03/20 13:54:24;;;;;;;11.57;10.47;;;17.20;17.00;;;;;;10309130;28;20261;-74
2022/03/20 13:59:31;;;;;;;12.70;11.43;;;17.20;16.80;;;;;;10311248;28;20609;-74
2022/03/20 14:04:37;;;;;;;11.30;10.20;;;17.20;16.40;;;;;;10315288;28;20235;-73
2022/03/20 14:09:42;;;;;;;10.97;9.97;;;17.20;16.10;;;;;;10316795;28;20251;-74
2022/03/20 14:14:46;;;;;;;11.73;10.63;;;17.20;16.50;;;;;;10294004;28;20235;-71
2022/03/20 14:19:50;;;;;;;10.17;9.27;;;17.10;16.60;;;;;;10291961;28;20664;-73
2022/03/20 14:24:57;;;;;;;10.80;9.90;;;17.20;16.70;;;;;;10318191;28;20239;-72
2022/03/20 14:40:46;;;;;;;10.90;9.90;;;17.30;16.40;;;;;;10330045;28;20239;-74
2022/03/20 14:45:50;;;;;;;11.60;10.50;;;17.30;16.40;;;;;;10320912;28;20249;-72
2022/03/20 14:50:53;;;;;;;10.83;9.83;;;17.30;16.20;;;;;;10318928;28;20239;-72
2022/03/20 14:55:58;;;;;;;11.03;10.03;;;17.30;16.30;;;;;;10329390;28;20241;-72
2022/03/20 15:01:01;;;;;;;10.90;9.90;;;17.30;15.90;;;;;;10332435;28;20239;-72
2022/03/20 15:06:05;;;;;;;11.60;10.60;;;17.20;15.80;;;;;;10328670;28;20656;-72
2022/03/20 15:11:25;;;;;;;10.47;9.57;;;17.20;15.60;;;;;;10347700;28;20235;-73
2022/03/20 15:16:29;;;;;;;11.27;10.07;;;17.10;15.50;;;;;;10326142;28;20289;-73
2022/03/20 15:21:32;;;;;;;10.50;9.50;;;17.00;16.00;;;;;;10324336;28;20234;-73
2022/03/20 15:26:37;;;;;;;9.47;8.67;;;17.10;15.90;;;;;;10325018;28;20233;-73
2022/03/20 15:31:44;;;;;;;10.57;9.67;;;17.00;15.80;;;;;;10324697;28;20237;-73
2022/03/20 15:36:49;;;;;;;9.73;8.93;;;17.00;15.20;;;;;;10328062;28;20234;-73
2022/03/20 15:41:54;;;;;;;10.00;9.10;;;17.00;15.60;;;;;;10327092;28;20267;-73
2022/03/20 15:46:59;;;;;;;9.70;8.80;;;16.90;15.30;;;;;;10326652;28;20247;-73
2022/03/20 15:52:02;;;;;;;9.53;8.63;;;16.90;15.60;;;;;;10332322;28;20235;-73
2022/03/20 15:57:07;;;;;;;9.60;8.60;;;16.90;15.60;;;;;;10324915;28;20246;-73
2022/03/20 16:02:12;;;;;;;9.57;8.67;;;16.90;15.40;;;;;;10328430;28;20231;-73
2022/03/20 16:07:15;;;;;;;9.70;8.80;;;17.00;15.50;;;;;;10320403;28;20676;-73
2022/03/20 16:12:20;;;;;;;10.03;9.13;;;16.90;15.20;;;;;;10328435;28;20238;-73
2022/03/20 16:17:23;;;;;;;9.43;8.53;;;16.90;15.10;;;;;;10327263;28;20249;-73
2022/03/20 16:22:26;;;;;;;9.97;9.07;;;16.90;15.40;;;;;;10317796;28;20703;-73
2022/03/20 16:32:51;;;;;;;10.93;9.53;;;16.90;15.00;;;;;;10319948;28;20226;-73
2022/03/20 16:37:54;;;;;;;9.63;8.73;;;16.90;15.40;;;;;;10323472;28;20737;-73
2022/03/20 16:42:59;;;;;;;10.53;9.57;;;16.80;15.30;;;;;;10318598;28;20231;-73
2022/03/20 16:48:02;;;;;;;10.47;9.47;;;16.70;14.90;;;;;;10322698;28;20366;-74
2022/03/20 16:53:06;;;;;;;11.37;9.80;;;16.60;15.10;;;;;;10319552;28;20245;-74
2022/03/20 16:58:12;;;;;;;10.10;9.03;;;16.50;14.40;;;;;;10319104;28;20235;-72
2022/03/20 17:03:15;;;;;;;9.63;8.73;;;16.30;14.70;;;;;;10319343;28;20723;-73
2022/03/20 17:08:20;;;;;;;9.93;9.03;;;16.20;14.90;;;;;;10318787;28;20238;-73
2022/03/20 17:13:24;;;;;;;9.13;8.33;;;16.10;15.00;;;;;;10319265;28;20253;-73
2022/03/20 17:18:28;;;;;;;9.17;8.37;;;16.00;15.00;;;;;;10318462;28;20265;-73
2022/03/20 17:23:32;;;;;;;9.80;8.90;;;16.00;15.20;;;;;;10326530;28;20815;-73
2022/03/20 17:28:37;;;;;;;10.70;9.23;;;16.00;15.30;;;;;;10328657;28;20238;-73
2022/03/20 17:33:40;;;;;;;10.10;9.20;;;15.90;14.90;;;;;;10323760;28;20246;-73
2022/03/20 17:38:44;;;;;;;10.33;9.43;;;15.80;15.30;;;;;;10324879;28;20230;-73
2022/03/20 17:43:48;;;;;;;9.63;8.73;;;15.70;15.10;;;;;;10336247;28;20261;-73
2022/03/20 17:48:51;;;;;;;10.80;9.80;;;15.60;14.90;;;;;;10330251;28;20234;-73
2022/03/20 17:53:55;;;;;;;10.00;9.10;;;15.60;15.10;;;;;;10337443;28;20666;-73
2022/03/20 17:59:23;;;;;;;10.23;9.23;;;15.50;15.10;;;;;;10333586;28;20245;-72
2022/03/20 18:09:45;;;;;;;9.87;8.87;;;15.30;14.90;;;;;;10331869;28;20796;-72
2022/03/20 18:14:49;;;;;;;8.93;8.13;;;15.10;15.00;;;;;;10331597;28;20262;-72
2022/03/20 18:19:52;;;;;;;9.10;8.30;;;14.90;14.90;;;;;;10331364;28;20231;-72
2022/03/20 18:24:55;;;;;;;9.40;8.50;;;14.80;15.00;;;;;;10330911;28;20250;-72
2022/03/20 18:30:00;;;;;;;9.63;8.70;;;14.60;14.90;;;;;;10330840;28;20314;-72
2022/03/20 18:35:04;;;;;;;9.60;8.70;;;14.50;14.80;;;;;;10330443;28;20239;-72
2022/03/20 18:40:09;;;;;;;9.67;8.67;;;14.50;15.00;;;;;;10330450;28;20242;-72
2022/03/20 18:45:16;;;;;;;10.20;8.03;;;14.40;15.60;;;;;;10330270;28;20243;-72
2022/03/20 18:50:20;;;;;;;8.80;8.00;;;14.30;14.90;;;;;;10329952;28;20285;-72
2022/03/20 18:55:25;;;;;;;9.33;8.37;;;14.30;15.10;;;;;;10329655;28;20290;-72
2022/03/20 19:00:32;;;;;;;8.93;8.13;;;14.20;15.20;;;;;;10330363;28;20239;-75
2022/03/20 19:05:36;;;;;;;9.73;8.73;;;14.20;15.10;;;;;;10323022;28;20238;-72
2022/03/20 19:10:39;;;;;;;9.77;8.87;;;14.20;15.30;;;;;;10328212;28;20223;-73
2022/03/20 19:15:44;;;;;;;8.70;7.90;;;14.10;15.30;;;;;;10318223;28;20245;-74
2022/03/20 19:20:48;;;;;;;8.97;7.70;;;14.10;15.30;;;;;;10319595;28;20249;-73
2022/03/20 19:25:51;;;;;;;8.17;7.47;;;14.00;15.30;;;;;;10310487;28;20597;-73
2022/03/20 19:30:56;;;;;;;7.53;6.83;;;14.00;15.40;;;;;;10319907;28;20230;-73
2022/03/20 19:41:20;;;;;;;7.57;6.73;;;13.80;15.40;;;;;;10313453;28;20235;-73
2022/03/20 19:46:24;;;;;;;7.53;6.87;;;13.70;15.50;;;;;;10311594;28;20238;-74
2022/03/20 19:51:28;;;;;;;9.03;7.80;;;13.60;15.50;;;;;;10310006;28;20317;-74
2022/03/20 19:56:31;;;;;;;9.03;8.20;;;13.50;15.60;;;;;;10319895;28;20313;-73
2022/03/20 20:01:35;;;;;;;10.27;9.13;;;13.40;15.60;;;;;;10311172;28;20238;-73
2022/03/20 20:06:39;;;;;;;9.73;8.73;;;13.20;16.00;;;;;;10313658;28;20262;-73
2022/03/20 20:11:45;;;;;;;9.77;8.77;;;13.20;15.80;;;;;;10313061;28;20231;-72
2022/03/20 20:16:50;;;;;;;9.77;8.87;;;13.00;15.70;;;;;;10310819;28;20238;-74
2022/03/20 20:21:53;;;;;;;10.47;8.50;;;12.90;15.50;;;;;;10312498;28;20228;-74
2022/03/20 20:26:56;;;;;;;9.00;8.10;;;12.70;15.60;;;;;;10313662;28;20234;-74
2022/03/20 20:32:01;;;;;;;8.53;7.73;;;12.60;15.60;;;;;;10313813;28;20230;-75
2022/03/20 20:37:05;;;;;;;9.13;7.40;;;12.50;15.60;;;;;;10316643;28;20616;-75
2022/03/20 20:42:08;;;;;;;8.03;7.27;;;12.40;15.50;;;;;;10318643;28;20234;-75
2022/03/20 20:47:13;;;;;;;8.73;7.40;;;12.30;15.60;;;;;;10318217;28;20231;-75
2022/03/20 20:52:16;;;;;;;7.70;6.90;;;12.20;15.50;;;;;;10313798;28;20235;-75
2022/03/20 20:57:19;;;;;;;8.30;7.43;;;12.10;15.70;;;;;;10319586;28;20238;-75
2022/03/20 21:02:24;;;;;;;7.70;6.73;;;12.10;15.80;;;;;;10320371;28;20234;-74
2022/03/20 21:12:48;;;;;;;7.63;6.93;;;11.90;15.90;;;;;;10313021;28;20787;-75
2022/03/20 21:17:52;;;;;;;7.73;6.93;;;11.80;15.90;;;;;;10305079;28;20231;-75
2022/03/20 21:22:55;;;;;;;7.30;6.60;;;11.80;15.70;;;;;;10317421;28;20231;-75
2022/03/20 21:27:58;;;;;;;8.03;7.23;;;11.70;15.80;;;;;;10312898;28;20231;-75
2022/03/20 21:33:05;;;;;;;8.03;6.97;;;11.70;15.90;;;;;;10310691;28;20224;-75
2022/03/20 21:38:10;;;;;;;7.67;6.73;;;11.60;15.90;;;;;;10315462;28;20296;-75
2022/03/20 21:43:13;;;;;;;8.30;7.50;;;11.60;15.90;;;;;;10318363;28;20235;-75
2022/03/20 21:48:22;;;;;;;6.90;6.30;;;11.50;16.00;;;;;;10307301;28;20231;-75
2022/03/20 21:53:25;;;;;;;6.43;5.83;;;11.40;16.10;;;;;;10312042;28;20242;-75
2022/03/20 21:58:29;;;;;;;7.50;6.73;;;11.30;16.10;;;;;;10317695;28;20245;-75
2022/03/20 22:03:33;;;;;;;8.40;6.63;;;11.20;16.30;;;;;;10316129;28;20235;-75
2022/03/20 22:08:37;;;;;;;8.03;7.00;;;11.10;16.30;;;;;;10319051;28;20234;-75
2022/03/20 22:13:41;;;;;;;9.13;6.83;;;11.00;16.20;;;;;;10305972;28;20262;-75
2022/03/20 22:18:45;;;;;;;8.43;6.20;;;10.90;16.30;;;;;;10301182;28;20228;-75
2022/03/20 22:23:49;;;;;;;8.43;7.23;;;10.80;16.40;;;;;;10298970;28;20235;-75
2022/03/20 22:28:52;;;;;;;7.87;6.83;;;10.70;16.50;;;;;;10303423;28;20236;-75
2022/03/20 22:33:56;;;;;;;7.33;6.63;;;10.60;16.60;;;;;;10314688;28;20235;-75
2022/03/20 22:39:00;;;;;;;9.30;6.87;;;10.60;16.70;;;;;;10310182;28;20234;-75
2022/03/20 22:44:05;;;;;;;8.63;7.63;;;10.50;16.70;;;;;;10311564;28;20611;-75
2022/03/20 22:54:31;;;;;;;8.00;7.13;;;10.30;16.90;;;;;;10310701;28;20327;-75
2022/03/20 22:59:34;;;;;;;7.63;6.93;;;10.20;16.80;;;;;;10314895;28;20227;-75
2022/03/20 23:04:38;;;;;;;7.43;6.73;;;10.10;16.90;;;;;;10306136;28;20237;-75
2022/03/20 23:09:43;;;;;;;8.37;7.57;;;10.00;16.90;;;;;;10317916;28;20557;-75
2022/03/20 23:14:46;;;;;;;7.63;6.93;;;10.00;16.90;;;;;;10315203;28;20230;-75
2022/03/20 23:19:50;;;;;;;7.80;7.00;;;9.90;17.60;;;;;;10309625;28;20238;-75
2022/03/20 23:24:53;;;;;;;8.37;7.37;;;9.80;17.80;;;;;;10317542;28;20741;-74
2022/03/20 23:29:57;;;;;;;8.60;7.67;;;9.60;17.80;;;;;;10312124;28;20664;-75
2022/03/20 23:35:02;;;;;;;7.67;6.97;;;9.60;17.80;;;;;;10308517;28;20237;-75
2022/03/20 23:40:06;;;;;;;9.00;7.50;;;9.50;18.00;;;;;;10310723;28;20337;-74
2022/03/20 23:45:10;;;;;;;8.93;7.87;;;9.40;18.00;;;;;;10300802;28;20235;-74
2022/03/20 23:50:14;;;;;;;7.90;7.17;;;9.30;18.00;;;;;;10307216;28;20236;-75
2022/03/20 23:55:18;;;;;;;6.90;6.20;;;9.20;18.20;;;;;;10307076;28;20322;-74
